sensor_id;sensor_type;location;lat;lon;timestamp;P1;durP1;ratioP1;P2;durP2;ratioP2
40827;SDS011;26549;50.918;5.338;2022-11-20T00:00:48;18.80;;;12.27;;
40827;SDS011;26549;50.918;5.338;2022-11-20T00:03:13;17.98;;;11.13;;
40827;SDS011;26549;50.918;5.338;2022-11-20T00:05:39;17.73;;;11.40;;
40827;SDS011;26549;50.918;5.338;2022-11-20T00:08:05;18.70;;;12.43;;
40827;SDS011;26549;50.918;5.338;2022-11-20T00:10:30;18.35;;;11.98;;
40827;SDS011;26549;50.918;5.338;2022-11-20T00:12:59;19.90;;;13.18;;
40827;SDS011;26549;50.918;5.338;2022-11-20T00:15:25;18.30;;;11.85;;
40827;SDS011;26549;50.918;5.338;2022-11-20T00:17:51;21.23;;;13.25;;
40827;SDS011;26549;50.918;5.338;2022-11-20T00:20:16;19.50;;;10.75;;
40827;SDS011;26549;50.918;5.338;2022-11-20T00:22:42;22.23;;;11.48;;
40827;SDS011;26549;50.918;5.338;2022-11-20T00:25:08;19.90;;;11.52;;
40827;SDS011;26549;50.918;5.338;2022-11-20T00:27:34;22.35;;;11.95;;
40827;SDS011;26549;50.918;5.338;2022-11-20T00:30:00;17.33;;;11.10;;
40827;SDS011;26549;50.918;5.338;2022-11-20T00:32:25;19.73;;;12.85;;
40827;SDS011;26549;50.918;5.338;2022-11-20T00:34:51;18.05;;;11.52;;
40827;SDS011;26549;50.918;5.338;2022-11-20T00:37:17;19.48;;;12.10;;
40827;SDS011;26549;50.918;5.338;2022-11-20T00:39:43;17.77;;;10.50;;
40827;SDS011;26549;50.918;5.338;2022-11-20T00:42:09;20.95;;;13.18;;
40827;SDS011;26549;50.918;5.338;2022-11-20T00:44:35;19.08;;;11.55;;
40827;SDS011;26549;50.918;5.338;2022-11-20T00:47:00;19.98;;;12.75;;
40827;SDS011;26549;50.918;5.338;2022-11-20T00:49:27;18.52;;;10.88;;
40827;SDS011;26549;50.918;5.338;2022-11-20T00:51:53;20.33;;;12.75;;
40827;SDS011;26549;50.918;5.338;2022-11-20T00:54:18;20.33;;;11.85;;
40827;SDS011;26549;50.918;5.338;2022-11-20T00:56:44;18.58;;;11.65;;
40827;SDS011;26549;50.918;5.338;2022-11-20T00:59:10;20.90;;;12.95;;
40827;SDS011;26549;50.918;5.338;2022-11-20T01:01:36;19.33;;;12.98;;
40827;SDS011;26549;50.918;5.338;2022-11-20T01:04:02;21.83;;;12.25;;
40827;SDS011;26549;50.918;5.338;2022-11-20T01:06:31;17.45;;;11.85;;
40827;SDS011;26549;50.918;5.338;2022-11-20T01:08:59;20.95;;;11.82;;
40827;SDS011;26549;50.918;5.338;2022-11-20T01:11:37;20.15;;;12.02;;
40827;SDS011;26549;50.918;5.338;2022-11-20T01:14:06;22.20;;;13.15;;
40827;SDS011;26549;50.918;5.338;2022-11-20T01:16:37;20.73;;;12.13;;
40827;SDS011;26549;50.918;5.338;2022-11-20T01:19:07;19.02;;;10.90;;
40827;SDS011;26549;50.918;5.338;2022-11-20T01:21:37;18.23;;;12.10;;
40827;SDS011;26549;50.918;5.338;2022-11-20T01:24:06;21.17;;;11.85;;
40827;SDS011;26549;50.918;5.338;2022-11-20T01:26:37;20.52;;;11.90;;
40827;SDS011;26549;50.918;5.338;2022-11-20T01:29:03;20.75;;;11.98;;
40827;SDS011;26549;50.918;5.338;2022-11-20T01:31:31;19.10;;;12.52;;
40827;SDS011;26549;50.918;5.338;2022-11-20T01:34:02;20.52;;;12.75;;
40827;SDS011;26549;50.918;5.338;2022-11-20T01:36:31;19.05;;;11.85;;
40827;SDS011;26549;50.918;5.338;2022-11-20T01:38:59;19.13;;;11.55;;
40827;SDS011;26549;50.918;5.338;2022-11-20T01:41:28;17.73;;;11.77;;
40827;SDS011;26549;50.918;5.338;2022-11-20T01:44:14;18.88;;;11.80;;
40827;SDS011;26549;50.918;5.338;2022-11-20T01:49:40;16.52;;;10.82;;
40827;SDS011;26549;50.918;5.338;2022-11-20T01:52:16;18.23;;;11.32;;
40827;SDS011;26549;50.918;5.338;2022-11-20T01:54:56;17.95;;;11.40;;
40827;SDS011;26549;50.918;5.338;2022-11-20T01:57:34;15.88;;;10.82;;
40827;SDS011;26549;50.918;5.338;2022-11-20T02:00:08;22.38;;;11.25;;
40827;SDS011;26549;50.918;5.338;2022-11-20T02:02:36;18.10;;;10.23;;
40827;SDS011;26549;50.918;5.338;2022-11-20T02:05:08;18.73;;;11.00;;
40827;SDS011;26549;50.918;5.338;2022-11-20T02:07:48;19.02;;;10.80;;
40827;SDS011;26549;50.918;5.338;2022-11-20T02:10:14;15.75;;;11.35;;
40827;SDS011;26549;50.918;5.338;2022-11-20T02:12:40;21.88;;;11.82;;
40827;SDS011;26549;50.918;5.338;2022-11-20T02:15:24;17.42;;;11.40;;
40827;SDS011;26549;50.918;5.338;2022-11-20T02:17:50;18.90;;;10.65;;
40827;SDS011;26549;50.918;5.338;2022-11-20T02:20:16;18.73;;;11.80;;
40827;SDS011;26549;50.918;5.338;2022-11-20T02:23:03;17.75;;;11.85;;
40827;SDS011;26549;50.918;5.338;2022-11-20T02:25:30;17.85;;;9.73;;
40827;SDS011;26549;50.918;5.338;2022-11-20T02:27:59;16.35;;;10.27;;
40827;SDS011;26549;50.918;5.338;2022-11-20T02:30:25;19.25;;;11.15;;
40827;SDS011;26549;50.918;5.338;2022-11-20T02:32:50;17.38;;;11.20;;
40827;SDS011;26549;50.918;5.338;2022-11-20T02:36:01;16.42;;;10.25;;
40827;SDS011;26549;50.918;5.338;2022-11-20T02:38:04;16.35;;;10.68;;
40827;SDS011;26549;50.918;5.338;2022-11-20T02:40:30;17.30;;;11.40;;
40827;SDS011;26549;50.918;5.338;2022-11-20T02:42:56;19.88;;;11.63;;
40827;SDS011;26549;50.918;5.338;2022-11-20T02:45:22;16.95;;;10.23;;
40827;SDS011;26549;50.918;5.338;2022-11-20T02:47:49;15.48;;;11.68;;
40827;SDS011;26549;50.918;5.338;2022-11-20T02:50:15;21.08;;;11.23;;
40827;SDS011;26549;50.918;5.338;2022-11-20T02:52:41;17.08;;;10.43;;
40827;SDS011;26549;50.918;5.338;2022-11-20T02:55:07;17.95;;;11.55;;
40827;SDS011;26549;50.918;5.338;2022-11-20T02:57:33;16.00;;;10.35;;
40827;SDS011;26549;50.918;5.338;2022-11-20T02:59:59;20.20;;;11.35;;
40827;SDS011;26549;50.918;5.338;2022-11-20T03:02:25;18.60;;;11.98;;
40827;SDS011;26549;50.918;5.338;2022-11-20T03:04:51;17.67;;;10.13;;
40827;SDS011;26549;50.918;5.338;2022-11-20T03:07:17;18.20;;;10.30;;
40827;SDS011;26549;50.918;5.338;2022-11-20T03:09:42;17.30;;;11.45;;
40827;SDS011;26549;50.918;5.338;2022-11-20T03:12:08;19.83;;;11.10;;
40827;SDS011;26549;50.918;5.338;2022-11-20T03:14:34;17.20;;;11.05;;
40827;SDS011;26549;50.918;5.338;2022-11-20T03:17:00;18.92;;;10.82;;
40827;SDS011;26549;50.918;5.338;2022-11-20T03:19:26;16.48;;;11.18;;
40827;SDS011;26549;50.918;5.338;2022-11-20T03:21:52;16.88;;;11.60;;
40827;SDS011;26549;50.918;5.338;2022-11-20T03:24:17;16.48;;;10.82;;
40827;SDS011;26549;50.918;5.338;2022-11-20T03:26:43;20.10;;;11.93;;
40827;SDS011;26549;50.918;5.338;2022-11-20T03:29:08;17.05;;;10.95;;
40827;SDS011;26549;50.918;5.338;2022-11-20T03:31:35;16.88;;;10.77;;
40827;SDS011;26549;50.918;5.338;2022-11-20T03:34:03;17.55;;;10.88;;
40827;SDS011;26549;50.918;5.338;2022-11-20T03:36:30;17.20;;;10.93;;
40827;SDS011;26549;50.918;5.338;2022-11-20T03:38:56;17.35;;;11.27;;
40827;SDS011;26549;50.918;5.338;2022-11-20T03:41:26;14.50;;;10.25;;
40827;SDS011;26549;50.918;5.338;2022-11-20T03:43:55;18.98;;;12.02;;
40827;SDS011;26549;50.918;5.338;2022-11-20T03:46:24;19.20;;;12.10;;
40827;SDS011;26549;50.918;5.338;2022-11-20T03:48:51;19.70;;;12.00;;
40827;SDS011;26549;50.918;5.338;2022-11-20T03:51:24;14.93;;;10.75;;
40827;SDS011;26549;50.918;5.338;2022-11-20T03:53:52;18.00;;;11.80;;
40827;SDS011;26549;50.918;5.338;2022-11-20T03:56:21;17.58;;;10.50;;
40827;SDS011;26549;50.918;5.338;2022-11-20T03:58:49;17.35;;;10.60;;
40827;SDS011;26549;50.918;5.338;2022-11-20T04:01:20;23.20;;;10.65;;
40827;SDS011;26549;50.918;5.338;2022-11-20T04:03:47;22.67;;;13.18;;
40827;SDS011;26549;50.918;5.338;2022-11-20T04:06:15;21.02;;;11.02;;
40827;SDS011;26549;50.918;5.338;2022-11-20T04:08:48;17.17;;;10.82;;
40827;SDS011;26549;50.918;5.338;2022-11-20T04:11:18;21.00;;;11.32;;
40827;SDS011;26549;50.918;5.338;2022-11-20T04:14:05;21.75;;;12.35;;
40827;SDS011;26549;50.918;5.338;2022-11-20T04:16:33;19.15;;;12.00;;
40827;SDS011;26549;50.918;5.338;2022-11-20T04:19:02;19.63;;;10.77;;
40827;SDS011;26549;50.918;5.338;2022-11-20T04:21:29;17.73;;;11.30;;
40827;SDS011;26549;50.918;5.338;2022-11-20T04:23:56;23.45;;;12.98;;
40827;SDS011;26549;50.918;5.338;2022-11-20T04:26:23;23.77;;;12.65;;
40827;SDS011;26549;50.918;5.338;2022-11-20T04:28:50;24.20;;;12.55;;
40827;SDS011;26549;50.918;5.338;2022-11-20T04:31:18;29.58;;;12.93;;
40827;SDS011;26549;50.918;5.338;2022-11-20T04:33:45;24.77;;;13.60;;
40827;SDS011;26549;50.918;5.338;2022-11-20T04:36:12;24.17;;;12.45;;
40827;SDS011;26549;50.918;5.338;2022-11-20T04:38:39;21.08;;;13.40;;
40827;SDS011;26549;50.918;5.338;2022-11-20T04:41:07;25.05;;;12.65;;
40827;SDS011;26549;50.918;5.338;2022-11-20T04:43:35;23.40;;;12.45;;
40827;SDS011;26549;50.918;5.338;2022-11-20T04:46:01;22.00;;;12.68;;
40827;SDS011;26549;50.918;5.338;2022-11-20T04:48:27;24.83;;;13.20;;
40827;SDS011;26549;50.918;5.338;2022-11-20T04:50:54;26.73;;;14.30;;
40827;SDS011;26549;50.918;5.338;2022-11-20T04:53:21;22.17;;;11.88;;
40827;SDS011;26549;50.918;5.338;2022-11-20T04:55:47;23.10;;;13.20;;
40827;SDS011;26549;50.918;5.338;2022-11-20T04:58:14;22.05;;;11.77;;
40827;SDS011;26549;50.918;5.338;2022-11-20T05:00:41;21.80;;;12.30;;
40827;SDS011;26549;50.918;5.338;2022-11-20T05:03:07;21.17;;;12.30;;
40827;SDS011;26549;50.918;5.338;2022-11-20T05:05:33;27.90;;;13.07;;
40827;SDS011;26549;50.918;5.338;2022-11-20T05:08:00;22.17;;;11.70;;
40827;SDS011;26549;50.918;5.338;2022-11-20T05:10:26;24.63;;;13.27;;
40827;SDS011;26549;50.918;5.338;2022-11-20T05:12:52;20.65;;;11.75;;
40827;SDS011;26549;50.918;5.338;2022-11-20T05:15:19;20.00;;;12.55;;
40827;SDS011;26549;50.918;5.338;2022-11-20T05:17:48;22.73;;;12.73;;
40827;SDS011;26549;50.918;5.338;2022-11-20T05:20:15;23.02;;;13.88;;
40827;SDS011;26549;50.918;5.338;2022-11-20T05:22:41;26.55;;;13.65;;
40827;SDS011;26549;50.918;5.338;2022-11-20T05:25:07;28.55;;;14.63;;
40827;SDS011;26549;50.918;5.338;2022-11-20T05:27:33;25.88;;;13.98;;
40827;SDS011;26549;50.918;5.338;2022-11-20T05:29:58;25.98;;;12.95;;
40827;SDS011;26549;50.918;5.338;2022-11-20T05:32:24;32.00;;;14.20;;
40827;SDS011;26549;50.918;5.338;2022-11-20T05:34:52;22.40;;;12.65;;
40827;SDS011;26549;50.918;5.338;2022-11-20T05:37:18;24.63;;;13.23;;
40827;SDS011;26549;50.918;5.338;2022-11-20T05:39:43;25.15;;;13.80;;
40827;SDS011;26549;50.918;5.338;2022-11-20T05:42:09;23.88;;;13.15;;
40827;SDS011;26549;50.918;5.338;2022-11-20T05:44:54;28.13;;;13.48;;
40827;SDS011;26549;50.918;5.338;2022-11-20T05:47:20;25.67;;;13.38;;
40827;SDS011;26549;50.918;5.338;2022-11-20T05:49:46;26.30;;;12.95;;
40827;SDS011;26549;50.918;5.338;2022-11-20T05:52:12;27.95;;;15.60;;
40827;SDS011;26549;50.918;5.338;2022-11-20T05:54:38;28.55;;;13.93;;
40827;SDS011;26549;50.918;5.338;2022-11-20T05:57:04;26.75;;;14.77;;
40827;SDS011;26549;50.918;5.338;2022-11-20T05:59:29;27.92;;;14.90;;
40827;SDS011;26549;50.918;5.338;2022-11-20T06:01:55;29.75;;;14.70;;
40827;SDS011;26549;50.918;5.338;2022-11-20T06:04:21;26.77;;;14.30;;
40827;SDS011;26549;50.918;5.338;2022-11-20T06:06:47;25.48;;;13.70;;
40827;SDS011;26549;50.918;5.338;2022-11-20T06:09:13;23.55;;;14.18;;
40827;SDS011;26549;50.918;5.338;2022-11-20T06:11:39;27.60;;;14.73;;
40827;SDS011;26549;50.918;5.338;2022-11-20T06:14:05;23.92;;;13.93;;
40827;SDS011;26549;50.918;5.338;2022-11-20T06:16:34;26.45;;;14.88;;
40827;SDS011;26549;50.918;5.338;2022-11-20T06:19:00;26.60;;;13.63;;
40827;SDS011;26549;50.918;5.338;2022-11-20T06:21:25;26.08;;;13.82;;
40827;SDS011;26549;50.918;5.338;2022-11-20T06:23:51;24.88;;;14.07;;
40827;SDS011;26549;50.918;5.338;2022-11-20T06:26:21;26.45;;;13.95;;
40827;SDS011;26549;50.918;5.338;2022-11-20T06:28:49;24.98;;;14.30;;
40827;SDS011;26549;50.918;5.338;2022-11-20T06:31:17;26.00;;;13.55;;
40827;SDS011;26549;50.918;5.338;2022-11-20T06:33:44;26.88;;;14.48;;
40827;SDS011;26549;50.918;5.338;2022-11-20T06:39:32;25.65;;;13.60;;
40827;SDS011;26549;50.918;5.338;2022-11-20T06:41:57;25.60;;;14.15;;
40827;SDS011;26549;50.918;5.338;2022-11-20T06:44:23;27.75;;;13.95;;
40827;SDS011;26549;50.918;5.338;2022-11-20T06:46:49;25.08;;;12.13;;
40827;SDS011;26549;50.918;5.338;2022-11-20T06:49:15;29.73;;;14.85;;
40827;SDS011;26549;50.918;5.338;2022-11-20T06:51:43;27.63;;;14.35;;
40827;SDS011;26549;50.918;5.338;2022-11-20T06:54:09;23.70;;;13.63;;
40827;SDS011;26549;50.918;5.338;2022-11-20T06:56:34;31.90;;;14.10;;
40827;SDS011;26549;50.918;5.338;2022-11-20T06:59:03;25.30;;;13.90;;
40827;SDS011;26549;50.918;5.338;2022-11-20T07:01:31;26.63;;;14.55;;
40827;SDS011;26549;50.918;5.338;2022-11-20T07:03:56;25.90;;;14.05;;
40827;SDS011;26549;50.918;5.338;2022-11-20T07:06:22;25.48;;;14.82;;
40827;SDS011;26549;50.918;5.338;2022-11-20T07:08:50;24.10;;;14.45;;
40827;SDS011;26549;50.918;5.338;2022-11-20T07:11:17;24.55;;;13.90;;
40827;SDS011;26549;50.918;5.338;2022-11-20T07:13:43;28.73;;;14.32;;
40827;SDS011;26549;50.918;5.338;2022-11-20T07:16:08;24.45;;;13.55;;
40827;SDS011;26549;50.918;5.338;2022-11-20T07:18:34;21.73;;;13.90;;
40827;SDS011;26549;50.918;5.338;2022-11-20T07:21:03;25.25;;;14.57;;
40827;SDS011;26549;50.918;5.338;2022-11-20T07:23:30;28.55;;;13.73;;
40827;SDS011;26549;50.918;5.338;2022-11-20T07:25:56;27.08;;;14.98;;
40827;SDS011;26549;50.918;5.338;2022-11-20T07:28:22;25.05;;;13.98;;
40827;SDS011;26549;50.918;5.338;2022-11-20T07:30:52;27.23;;;14.13;;
40827;SDS011;26549;50.918;5.338;2022-11-20T07:33:19;22.77;;;13.85;;
40827;SDS011;26549;50.918;5.338;2022-11-20T07:35:46;24.50;;;13.60;;
40827;SDS011;26549;50.918;5.338;2022-11-20T07:38:11;23.45;;;13.80;;
40827;SDS011;26549;50.918;5.338;2022-11-20T07:40:37;22.50;;;13.02;;
40827;SDS011;26549;50.918;5.338;2022-11-20T07:43:03;29.98;;;14.90;;
40827;SDS011;26549;50.918;5.338;2022-11-20T07:45:30;26.67;;;13.75;;
40827;SDS011;26549;50.918;5.338;2022-11-20T07:47:56;24.65;;;14.32;;
40827;SDS011;26549;50.918;5.338;2022-11-20T07:50:21;26.45;;;13.68;;
40827;SDS011;26549;50.918;5.338;2022-11-20T07:52:48;27.85;;;15.57;;
40827;SDS011;26549;50.918;5.338;2022-11-20T07:55:14;25.02;;;14.15;;
40827;SDS011;26549;50.918;5.338;2022-11-20T07:57:40;26.80;;;14.85;;
40827;SDS011;26549;50.918;5.338;2022-11-20T08:00:06;27.30;;;14.35;;
40827;SDS011;26549;50.918;5.338;2022-11-20T08:02:34;26.63;;;14.85;;
40827;SDS011;26549;50.918;5.338;2022-11-20T08:05:05;28.73;;;15.20;;
40827;SDS011;26549;50.918;5.338;2022-11-20T08:07:38;26.80;;;14.73;;
40827;SDS011;26549;50.918;5.338;2022-11-20T08:10:05;29.60;;;14.48;;
40827;SDS011;26549;50.918;5.338;2022-11-20T08:15:34;24.30;;;14.90;;
40827;SDS011;26549;50.918;5.338;2022-11-20T08:18:01;25.27;;;14.45;;
40827;SDS011;26549;50.918;5.338;2022-11-20T08:23:04;27.38;;;14.80;;
40827;SDS011;26549;50.918;5.338;2022-11-20T08:25:34;27.92;;;15.77;;
40827;SDS011;26549;50.918;5.338;2022-11-20T08:28:04;27.83;;;15.82;;
40827;SDS011;26549;50.918;5.338;2022-11-20T08:30:31;28.02;;;14.18;;
40827;SDS011;26549;50.918;5.338;2022-11-20T08:33:03;32.63;;;15.52;;
40827;SDS011;26549;50.918;5.338;2022-11-20T08:38:04;31.33;;;16.90;;
40827;SDS011;26549;50.918;5.338;2022-11-20T08:40:31;32.35;;;16.45;;
40827;SDS011;26549;50.918;5.338;2022-11-20T08:42:57;31.08;;;16.70;;
40827;SDS011;26549;50.918;5.338;2022-11-20T08:47:53;31.27;;;16.23;;
40827;SDS011;26549;50.918;5.338;2022-11-20T08:53:01;28.23;;;15.32;;
40827;SDS011;26549;50.918;5.338;2022-11-20T08:55:31;29.13;;;15.43;;
40827;SDS011;26549;50.918;5.338;2022-11-20T09:00:29;33.58;;;17.33;;
40827;SDS011;26549;50.918;5.338;2022-11-20T09:05:24;27.50;;;16.10;;
40827;SDS011;26549;50.918;5.338;2022-11-20T09:07:50;28.63;;;14.82;;
40827;SDS011;26549;50.918;5.338;2022-11-20T09:10:19;28.08;;;14.70;;
40827;SDS011;26549;50.918;5.338;2022-11-20T09:12:48;27.95;;;14.50;;
40827;SDS011;26549;50.918;5.338;2022-11-20T09:15:14;30.48;;;15.73;;
40827;SDS011;26549;50.918;5.338;2022-11-20T09:17:40;29.85;;;15.60;;
40827;SDS011;26549;50.918;5.338;2022-11-20T09:20:06;30.95;;;15.48;;
40827;SDS011;26549;50.918;5.338;2022-11-20T09:22:34;32.17;;;16.15;;
40827;SDS011;26549;50.918;5.338;2022-11-20T09:27:29;28.98;;;15.18;;
40827;SDS011;26549;50.918;5.338;2022-11-20T09:29:57;31.58;;;14.77;;
40827;SDS011;26549;50.918;5.338;2022-11-20T09:32:22;30.83;;;15.65;;
40827;SDS011;26549;50.918;5.338;2022-11-20T09:34:49;30.20;;;14.77;;
40827;SDS011;26549;50.918;5.338;2022-11-20T09:37:16;32.55;;;15.88;;
40827;SDS011;26549;50.918;5.338;2022-11-20T09:39:42;28.75;;;14.90;;
40827;SDS011;26549;50.918;5.338;2022-11-20T09:44:56;30.70;;;13.70;;
40827;SDS011;26549;50.918;5.338;2022-11-20T09:53:34;33.92;;;17.15;;
40827;SDS011;26549;50.918;5.338;2022-11-20T09:56:12;32.00;;;16.35;;
40827;SDS011;26549;50.918;5.338;2022-11-20T09:58:45;40.30;;;18.70;;
40827;SDS011;26549;50.918;5.338;2022-11-20T10:03:54;38.20;;;16.77;;
40827;SDS011;26549;50.918;5.338;2022-11-20T10:06:33;40.65;;;17.55;;
40827;SDS011;26549;50.918;5.338;2022-11-20T10:31:41;36.58;;;16.17;;
40827;SDS011;26549;50.918;5.338;2022-11-20T10:34:26;36.83;;;16.65;;
40827;SDS011;26549;50.918;5.338;2022-11-20T10:37:01;36.85;;;17.10;;
40827;SDS011;26549;50.918;5.338;2022-11-20T10:48:11;36.38;;;16.38;;
40827;SDS011;26549;50.918;5.338;2022-11-20T10:50:43;42.80;;;18.17;;
40827;SDS011;26549;50.918;5.338;2022-11-20T10:56:39;41.83;;;18.70;;
40827;SDS011;26549;50.918;5.338;2022-11-20T10:59:23;37.35;;;16.17;;
40827;SDS011;26549;50.918;5.338;2022-11-20T11:02:21;35.97;;;17.08;;
40827;SDS011;26549;50.918;5.338;2022-11-20T11:04:52;37.13;;;17.63;;
40827;SDS011;26549;50.918;5.338;2022-11-20T11:07:33;43.08;;;16.58;;
40827;SDS011;26549;50.918;5.338;2022-11-20T11:10:05;36.83;;;17.90;;
40827;SDS011;26549;50.918;5.338;2022-11-20T11:12:47;39.05;;;17.42;;
40827;SDS011;26549;50.918;5.338;2022-11-20T11:15:27;39.20;;;17.05;;
40827;SDS011;26549;50.918;5.338;2022-11-20T11:18:05;39.00;;;16.85;;
40827;SDS011;26549;50.918;5.338;2022-11-20T11:20:34;38.35;;;17.95;;
40827;SDS011;26549;50.918;5.338;2022-11-20T11:23:10;36.92;;;15.82;;
40827;SDS011;26549;50.918;5.338;2022-11-20T11:26:23;35.30;;;15.55;;
40827;SDS011;26549;50.918;5.338;2022-11-20T11:29:01;31.05;;;16.05;;
40827;SDS011;26549;50.918;5.338;2022-11-20T11:31:30;35.20;;;16.95;;
40827;SDS011;26549;50.918;5.338;2022-11-20T11:34:06;30.33;;;14.98;;
40827;SDS011;26549;50.918;5.338;2022-11-20T11:36:39;35.50;;;18.65;;
40827;SDS011;26549;50.918;5.338;2022-11-20T11:39:13;35.03;;;15.68;;
40827;SDS011;26549;50.918;5.338;2022-11-20T11:41:41;30.50;;;15.18;;
40827;SDS011;26549;50.918;5.338;2022-11-20T11:47:42;30.08;;;14.88;;
40827;SDS011;26549;50.918;5.338;2022-11-20T11:53:17;26.02;;;13.60;;
40827;SDS011;26549;50.918;5.338;2022-11-20T11:58:04;25.67;;;12.93;;
40827;SDS011;26549;50.918;5.338;2022-11-20T12:00:31;23.83;;;12.25;;
40827;SDS011;26549;50.918;5.338;2022-11-20T12:03:12;21.10;;;12.38;;
40827;SDS011;26549;50.918;5.338;2022-11-20T12:06:12;25.08;;;12.45;;
40827;SDS011;26549;50.918;5.338;2022-11-20T12:11:13;23.42;;;11.43;;
40827;SDS011;26549;50.918;5.338;2022-11-20T12:14:00;21.17;;;11.20;;
40827;SDS011;26549;50.918;5.338;2022-11-20T12:16:41;18.40;;;9.68;;
40827;SDS011;26549;50.918;5.338;2022-11-20T12:19:11;21.88;;;9.25;;
40827;SDS011;26549;50.918;5.338;2022-11-20T12:24:35;15.98;;;8.68;;
40827;SDS011;26549;50.918;5.338;2022-11-20T12:30:09;7.20;;;4.63;;
40827;SDS011;26549;50.918;5.338;2022-11-20T12:40:35;6.93;;;3.10;;
40827;SDS011;26549;50.918;5.338;2022-11-20T12:51:44;4.13;;;2.10;;
40827;SDS011;26549;50.918;5.338;2022-11-20T13:00:26;4.82;;;1.90;;
40827;SDS011;26549;50.918;5.338;2022-11-20T13:08:15;2.47;;;1.50;;
40827;SDS011;26549;50.918;5.338;2022-11-20T13:10:50;11.85;;;1.60;;
40827;SDS011;26549;50.918;5.338;2022-11-20T13:16:14;2.10;;;1.45;;
40827;SDS011;26549;50.918;5.338;2022-11-20T13:18:42;6.40;;;2.25;;
40827;SDS011;26549;50.918;5.338;2022-11-20T13:21:17;4.00;;;1.48;;
40827;SDS011;26549;50.918;5.338;2022-11-20T13:23:45;5.68;;;1.52;;
40827;SDS011;26549;50.918;5.338;2022-11-20T13:26:21;3.70;;;1.70;;
40827;SDS011;26549;50.918;5.338;2022-11-20T13:28:59;3.88;;;1.83;;
40827;SDS011;26549;50.918;5.338;2022-11-20T13:31:43;5.45;;;1.92;;
40827;SDS011;26549;50.918;5.338;2022-11-20T13:34:12;4.03;;;1.48;;
40827;SDS011;26549;50.918;5.338;2022-11-20T13:36:49;6.85;;;1.52;;
40827;SDS011;26549;50.918;5.338;2022-11-20T13:39:29;5.85;;;1.48;;
40827;SDS011;26549;50.918;5.338;2022-11-20T13:42:18;3.30;;;1.77;;
40827;SDS011;26549;50.918;5.338;2022-11-20T13:44:53;2.97;;;1.55;;
40827;SDS011;26549;50.918;5.338;2022-11-20T13:47:24;3.28;;;2.13;;
40827;SDS011;26549;50.918;5.338;2022-11-20T13:49:52;4.38;;;2.00;;
40827;SDS011;26549;50.918;5.338;2022-11-20T13:52:26;3.33;;;1.20;;
40827;SDS011;26549;50.918;5.338;2022-11-20T14:00:29;3.33;;;1.60;;
40827;SDS011;26549;50.918;5.338;2022-11-20T14:03:06;3.08;;;1.23;;
40827;SDS011;26549;50.918;5.338;2022-11-20T14:05:37;2.60;;;1.17;;
40827;SDS011;26549;50.918;5.338;2022-11-20T14:08:06;4.80;;;1.15;;
40827;SDS011;26549;50.918;5.338;2022-11-20T14:10:41;6.18;;;1.08;;
40827;SDS011;26549;50.918;5.338;2022-11-20T14:13:10;6.68;;;1.77;;
40827;SDS011;26549;50.918;5.338;2022-11-20T14:15:43;2.22;;;1.25;;
40827;SDS011;26549;50.918;5.338;2022-11-20T14:18:19;7.03;;;1.40;;
40827;SDS011;26549;50.918;5.338;2022-11-20T14:20:46;4.32;;;1.38;;
40827;SDS011;26549;50.918;5.338;2022-11-20T14:23:22;3.70;;;2.00;;
40827;SDS011;26549;50.918;5.338;2022-11-20T14:25:50;4.93;;;2.08;;
40827;SDS011;26549;50.918;5.338;2022-11-20T14:28:23;4.07;;;1.92;;
40827;SDS011;26549;50.918;5.338;2022-11-20T14:30:53;2.67;;;2.03;;
40827;SDS011;26549;50.918;5.338;2022-11-20T14:33:20;6.40;;;1.83;;
40827;SDS011;26549;50.918;5.338;2022-11-20T14:35:50;8.20;;;3.42;;
40827;SDS011;26549;50.918;5.338;2022-11-20T14:38:20;4.45;;;2.55;;
40827;SDS011;26549;50.918;5.338;2022-11-20T14:40:49;7.68;;;1.70;;
40827;SDS011;26549;50.918;5.338;2022-11-20T14:45:52;4.05;;;1.50;;
40827;SDS011;26549;50.918;5.338;2022-11-20T14:48:28;4.32;;;1.55;;
40827;SDS011;26549;50.918;5.338;2022-11-20T14:51:03;7.97;;;1.88;;
40827;SDS011;26549;50.918;5.338;2022-11-20T14:53:29;2.80;;;1.40;;
40827;SDS011;26549;50.918;5.338;2022-11-20T14:55:56;3.13;;;2.00;;
40827;SDS011;26549;50.918;5.338;2022-11-20T14:58:27;6.38;;;1.95;;
40827;SDS011;26549;50.918;5.338;2022-11-20T15:00:57;3.85;;;2.15;;
40827;SDS011;26549;50.918;5.338;2022-11-20T15:03:33;2.47;;;1.45;;
40827;SDS011;26549;50.918;5.338;2022-11-20T15:06:00;4.20;;;1.48;;
40827;SDS011;26549;50.918;5.338;2022-11-20T15:08:26;1.90;;;1.50;;
40827;SDS011;26549;50.918;5.338;2022-11-20T15:10:52;4.38;;;1.75;;
40827;SDS011;26549;50.918;5.338;2022-11-20T15:13:31;5.97;;;1.60;;
40827;SDS011;26549;50.918;5.338;2022-11-20T15:16:00;5.38;;;1.63;;
40827;SDS011;26549;50.918;5.338;2022-11-20T15:18:33;3.58;;;1.58;;
40827;SDS011;26549;50.918;5.338;2022-11-20T15:21:06;3.50;;;2.03;;
40827;SDS011;26549;50.918;5.338;2022-11-20T15:23:37;5.18;;;1.75;;
40827;SDS011;26549;50.918;5.338;2022-11-20T15:26:06;4.53;;;1.50;;
40827;SDS011;26549;50.918;5.338;2022-11-20T15:28:37;3.92;;;2.00;;
40827;SDS011;26549;50.918;5.338;2022-11-20T15:31:06;2.88;;;1.98;;
40827;SDS011;26549;50.918;5.338;2022-11-20T15:33:36;4.53;;;2.83;;
40827;SDS011;26549;50.918;5.338;2022-11-20T15:36:02;7.38;;;2.47;;
40827;SDS011;26549;50.918;5.338;2022-11-20T15:38:29;3.15;;;1.90;;
40827;SDS011;26549;50.918;5.338;2022-11-20T15:40:55;4.85;;;1.85;;
40827;SDS011;26549;50.918;5.338;2022-11-20T15:43:21;2.80;;;1.85;;
40827;SDS011;26549;50.918;5.338;2022-11-20T15:46:22;2.80;;;2.50;;
40827;SDS011;26549;50.918;5.338;2022-11-20T15:48:48;1.90;;;1.75;;
40827;SDS011;26549;50.918;5.338;2022-11-20T15:51:32;2.08;;;1.30;;
40827;SDS011;26549;50.918;5.338;2022-11-20T15:54:00;1.23;;;1.00;;
40827;SDS011;26549;50.918;5.338;2022-11-20T15:56:33;3.50;;;1.48;;
40827;SDS011;26549;50.918;5.338;2022-11-20T15:59:00;2.25;;;2.08;;
40827;SDS011;26549;50.918;5.338;2022-11-20T16:01:26;3.47;;;1.67;;
40827;SDS011;26549;50.918;5.338;2022-11-20T16:03:52;2.17;;;1.38;;
40827;SDS011;26549;50.918;5.338;2022-11-20T16:06:17;2.00;;;1.33;;
40827;SDS011;26549;50.918;5.338;2022-11-20T16:08:43;1.23;;;1.10;;
40827;SDS011;26549;50.918;5.338;2022-11-20T16:11:12;1.70;;;1.40;;
40827;SDS011;26549;50.918;5.338;2022-11-20T16:13:39;3.60;;;1.33;;
40827;SDS011;26549;50.918;5.338;2022-11-20T16:16:28;1.58;;;1.10;;
40827;SDS011;26549;50.918;5.338;2022-11-20T16:18:59;4.47;;;1.50;;
40827;SDS011;26549;50.918;5.338;2022-11-20T16:21:25;1.58;;;1.13;;
40827;SDS011;26549;50.918;5.338;2022-11-20T16:24:04;2.92;;;1.30;;
40827;SDS011;26549;50.918;5.338;2022-11-20T16:26:31;3.13;;;1.70;;
40827;SDS011;26549;50.918;5.338;2022-11-20T16:29:00;3.75;;;1.33;;
40827;SDS011;26549;50.918;5.338;2022-11-20T16:31:28;2.55;;;1.80;;
40827;SDS011;26549;50.918;5.338;2022-11-20T16:33:55;2.40;;;1.92;;
40827;SDS011;26549;50.918;5.338;2022-11-20T16:36:23;3.65;;;1.73;;
40827;SDS011;26549;50.918;5.338;2022-11-20T16:39:00;4.88;;;2.58;;
40827;SDS011;26549;50.918;5.338;2022-11-20T16:41:30;3.15;;;2.10;;
40827;SDS011;26549;50.918;5.338;2022-11-20T16:43:58;3.10;;;2.67;;
40827;SDS011;26549;50.918;5.338;2022-11-20T16:46:29;4.53;;;2.28;;
40827;SDS011;26549;50.918;5.338;2022-11-20T16:49:00;2.83;;;1.85;;
40827;SDS011;26549;50.918;5.338;2022-11-20T16:51:38;4.97;;;2.33;;